createdAt,value
2018-05-10T00:01:51.510Z,19.40
2018-05-10T00:04:19.754Z,19.40
2018-05-10T00:06:48.414Z,19.40
2018-05-10T00:09:16.841Z,19.30
2018-05-10T00:11:44.392Z,19.30
2018-05-10T00:14:11.982Z,19.30
2018-05-10T00:16:41.579Z,19.10
2018-05-10T00:19:09.134Z,19.10
2018-05-10T00:21:37.715Z,19.10
2018-05-10T00:24:05.259Z,19.00
2018-05-10T00:26:32.949Z,18.90
2018-05-10T00:29:01.208Z,18.80
2018-05-10T00:31:28.813Z,18.70
2018-05-10T00:33:56.338Z,18.60
2018-05-10T00:36:23.993Z,18.60
2018-05-10T00:38:52.174Z,18.60
2018-05-10T00:41:19.761Z,18.50
2018-05-10T00:43:48.274Z,18.50
2018-05-10T00:46:15.750Z,18.50
2018-05-10T00:48:44.114Z,18.60
2018-05-10T00:51:12.978Z,18.70
2018-05-10T00:53:41.233Z,18.70
2018-05-10T00:56:09.329Z,18.70
2018-05-10T00:58:37.181Z,18.80
2018-05-10T01:01:04.855Z,18.80
2018-05-10T01:03:33.439Z,18.80
2018-05-10T01:06:01.028Z,18.80
2018-05-10T01:08:28.598Z,18.80
2018-05-10T01:10:56.818Z,18.80
2018-05-10T01:13:24.427Z,18.80
2018-05-10T01:15:51.956Z,18.90
2018-05-10T01:18:19.538Z,18.90
2018-05-10T01:20:47.244Z,18.90
2018-05-10T01:23:18.597Z,18.90
2018-05-10T01:25:46.254Z,18.90
2018-05-10T01:28:13.898Z,18.90
2018-05-10T01:30:42.396Z,18.90
2018-05-10T01:33:10.194Z,18.90
2018-05-10T01:35:49.853Z,18.80
2018-05-10T01:38:17.909Z,18.80
2018-05-10T01:40:45.431Z,18.80
2018-05-10T01:43:13.095Z,18.80
2018-05-10T01:45:41.686Z,18.80
2018-05-10T01:48:10.167Z,18.90
2018-05-10T01:50:37.799Z,18.90
2018-05-10T01:53:06.732Z,18.90
2018-05-10T01:55:34.274Z,18.90
2018-05-10T01:58:01.841Z,18.90
2018-05-10T02:00:29.396Z,18.90
2018-05-10T02:02:56.958Z,18.90
2018-05-10T02:05:24.505Z,18.90
2018-05-10T02:07:52.098Z,18.80
2018-05-10T02:10:19.677Z,18.80
2018-05-10T02:12:47.206Z,18.70
2018-05-10T02:15:14.762Z,18.60
2018-05-10T02:17:42.723Z,18.60
2018-05-10T02:20:10.553Z,18.60
2018-05-10T02:22:38.072Z,18.50
2018-05-10T02:25:05.658Z,18.50
2018-05-10T02:27:33.290Z,18.40
2018-05-10T02:30:01.114Z,18.40
2018-05-10T02:32:29.575Z,18.40
2018-05-10T02:34:57.281Z,18.40
2018-05-10T02:37:24.852Z,18.40
2018-05-10T02:39:52.396Z,18.40
2018-05-10T02:42:19.922Z,18.50
2018-05-10T02:44:48.659Z,18.50
2018-05-10T02:47:18.104Z,18.50
2018-05-10T02:49:46.627Z,18.40
2018-05-10T02:52:14.226Z,18.40
2018-05-10T02:54:41.826Z,18.40
2018-05-10T02:57:09.346Z,18.40
2018-05-10T02:59:36.884Z,18.50
2018-05-10T03:02:05.292Z,18.50
2018-05-10T03:04:33.072Z,18.60
2018-05-10T03:07:01.350Z,18.60
2018-05-10T03:09:29.100Z,18.60
2018-05-10T03:11:56.752Z,18.50
2018-05-10T03:14:24.274Z,18.50
2018-05-10T03:16:51.888Z,18.50
2018-05-10T03:19:20.392Z,18.40
2018-05-10T03:21:48.476Z,18.40
2018-05-10T03:24:17.612Z,18.50
2018-05-10T03:26:45.284Z,18.50
2018-05-10T03:29:13.010Z,18.50
2018-05-10T03:31:41.316Z,18.50
2018-05-10T03:34:08.872Z,18.50
2018-05-10T03:36:37.251Z,18.50
2018-05-10T03:39:05.476Z,18.60
2018-05-10T03:41:33.001Z,18.60
2018-05-10T03:44:00.625Z,18.60
2018-05-10T03:46:30.368Z,18.60
2018-05-10T03:48:58.631Z,18.60
2018-05-10T03:51:26.166Z,18.60
2018-05-10T03:53:54.557Z,18.60
2018-05-10T03:56:22.834Z,18.60
2018-05-10T03:58:50.628Z,18.60
2018-05-10T04:01:18.253Z,18.60
2018-05-10T04:03:58.515Z,18.60
2018-05-10T04:06:37.996Z,18.60
2018-05-10T04:09:17.432Z,18.60
2018-05-10T04:11:45.081Z,18.70
2018-05-10T04:14:12.677Z,18.70
2018-05-10T04:16:40.195Z,18.90
2018-05-10T04:19:07.777Z,18.90
2018-05-10T04:21:35.577Z,18.90
2018-05-10T04:24:03.124Z,18.80
2018-05-10T04:26:30.623Z,18.80
2018-05-10T04:28:58.947Z,18.80
2018-05-10T04:31:27.446Z,18.70
2018-05-10T04:33:55.931Z,18.70
2018-05-10T04:36:23.448Z,18.80
2018-05-10T04:38:51.391Z,18.90
2018-05-10T04:41:19.897Z,18.90
2018-05-10T04:43:48.003Z,19.10
2018-05-10T04:46:16.358Z,19.20
2018-05-10T04:48:43.913Z,19.30
2018-05-10T04:51:12.046Z,19.40
2018-05-10T04:53:39.610Z,19.50
2018-05-10T04:56:09.671Z,19.80
2018-05-10T04:58:37.263Z,19.80
2018-05-10T05:01:04.842Z,19.90
2018-05-10T05:03:32.401Z,19.90
2018-05-10T05:06:00.715Z,20.00
2018-05-10T05:08:29.018Z,20.00
2018-05-10T05:10:57.668Z,20.00
2018-05-10T05:13:25.316Z,20.10
2018-05-10T05:15:52.866Z,20.20
2018-05-10T05:18:21.270Z,20.10
2018-05-10T05:20:48.871Z,20.10
2018-05-10T05:23:16.490Z,20.10
2018-05-10T05:25:44.102Z,19.90
2018-05-10T05:28:11.832Z,19.90
2018-05-10T05:30:39.371Z,20.00
2018-05-10T05:33:07.530Z,20.10
2018-05-10T05:35:35.315Z,20.20
2018-05-10T05:38:03.737Z,20.40
2018-05-10T05:40:31.261Z,20.40
2018-05-10T05:42:58.907Z,20.60
2018-05-10T05:45:26.823Z,21.00
2018-05-10T05:47:55.325Z,21.40
2018-05-10T05:50:22.896Z,22.10
2018-05-10T05:52:50.730Z,22.10
2018-05-10T05:55:18.467Z,22.10
2018-05-10T05:57:46.190Z,22.10
2018-05-10T06:00:14.646Z,22.10
2018-05-10T06:02:42.520Z,22.40
2018-05-10T06:05:10.768Z,22.40
2018-05-10T06:07:38.408Z,22.80
2018-05-10T06:10:06.102Z,23.30
2018-05-10T06:12:33.702Z,23.80
2018-05-10T06:15:01.836Z,23.70
2018-05-10T06:17:30.168Z,23.50
2018-05-10T06:19:59.220Z,23.10
2018-05-10T06:22:26.857Z,23.10
2018-05-10T06:24:54.539Z,23.00
2018-05-10T06:27:22.407Z,23.30
2018-05-10T06:29:50.178Z,23.10
2018-05-10T06:32:17.804Z,23.20
2018-05-10T06:34:45.336Z,22.80
2018-05-10T06:37:13.200Z,22.70
2018-05-10T06:39:41.493Z,22.70
2018-05-10T06:42:09.180Z,22.70
2018-05-10T06:44:36.766Z,22.60
2018-05-10T06:47:04.375Z,22.60
2018-05-10T06:49:32.299Z,22.70
2018-05-10T06:52:00.316Z,22.80
2018-05-10T06:54:27.897Z,22.70
2018-05-10T06:56:55.666Z,22.60
2018-05-10T06:59:23.248Z,22.70
2018-05-10T07:01:51.165Z,22.70
2018-05-10T07:04:18.757Z,23.00
2018-05-10T07:06:46.332Z,23.50
2018-05-10T07:09:13.963Z,24.10
2018-05-10T07:11:42.022Z,24.60
2018-05-10T07:14:09.750Z,25.00
2018-05-10T07:16:37.583Z,25.30
2018-05-10T07:19:05.356Z,25.70
2018-05-10T07:21:33.194Z,26.00
2018-05-10T07:24:01.588Z,26.60
2018-05-10T07:26:29.140Z,26.50
2018-05-10T07:28:56.695Z,26.50
2018-05-10T07:31:24.986Z,26.90
2018-05-10T07:33:52.732Z,26.80
2018-05-10T07:36:20.331Z,27.00
2018-05-10T07:38:47.904Z,27.20
2018-05-10T07:41:15.434Z,27.20
2018-05-10T07:43:42.995Z,27.30
2018-05-10T07:46:10.515Z,27.30
2018-05-10T07:48:38.848Z,27.60
2018-05-10T07:51:06.602Z,27.50
2018-05-10T07:53:36.226Z,29.40
2018-05-10T07:56:03.858Z,29.40
2018-05-10T07:58:31.615Z,29.90
2018-05-10T08:00:59.299Z,30.10
2018-05-10T08:03:26.836Z,29.80
2018-05-10T08:05:56.094Z,29.90
2018-05-10T08:08:25.474Z,29.90
2018-05-10T08:10:53.223Z,30.00
2018-05-10T08:13:21.060Z,30.40
2018-05-10T08:15:48.873Z,30.60
2018-05-10T08:18:16.449Z,30.70
2018-05-10T08:20:45.111Z,30.20
2018-05-10T08:23:12.707Z,30.20
2018-05-10T08:25:41.044Z,30.10
2018-05-10T08:28:08.581Z,29.70
2018-05-10T08:30:37.470Z,29.00
2018-05-10T08:33:05.106Z,28.70
2018-05-10T08:35:34.211Z,28.70
2018-05-10T08:38:01.954Z,28.70
2018-05-10T08:40:29.629Z,28.90
2018-05-10T08:42:57.377Z,28.70
2018-05-10T08:45:25.593Z,28.70
2018-05-10T08:47:54.124Z,28.50
2018-05-10T08:50:21.629Z,28.20
2018-05-10T08:52:50.709Z,28.30
2018-05-10T08:55:19.289Z,28.30
2018-05-10T08:57:46.886Z,28.00
2018-05-10T09:00:14.453Z,27.90
2018-05-10T09:02:42.006Z,27.90
2018-05-10T09:05:09.677Z,27.50
2018-05-10T09:07:37.465Z,26.80
2018-05-10T09:10:04.992Z,26.50
2018-05-10T09:12:33.076Z,26.60
2018-05-10T09:15:02.691Z,26.70
2018-05-10T09:17:30.586Z,26.50
2018-05-10T09:20:00.702Z,26.40
2018-05-10T09:22:29.104Z,26.20
2018-05-10T09:24:56.741Z,26.10
2018-05-10T09:27:24.722Z,25.90
2018-05-10T09:29:52.368Z,26.00
2018-05-10T09:32:20.077Z,26.00
2018-05-10T09:34:48.381Z,25.90
2018-05-10T09:37:16.083Z,25.90
2018-05-10T09:39:43.735Z,25.90
2018-05-10T09:42:11.311Z,25.80
2018-05-10T09:44:39.899Z,25.80
2018-05-10T09:47:07.460Z,25.80
2018-05-10T09:49:34.965Z,25.70
2018-05-10T09:52:02.500Z,25.70
2018-05-10T09:54:30.323Z,25.70
2018-05-10T09:56:58.602Z,25.80
2018-05-10T09:59:26.195Z,25.90
2018-05-10T10:01:53.937Z,25.60
2018-05-10T10:04:21.492Z,25.60
2018-05-10T10:06:49.053Z,25.80
2018-05-10T10:09:17.109Z,25.80
2018-05-10T10:11:44.716Z,25.80
2018-05-10T10:14:12.301Z,25.80
2018-05-10T10:16:40.813Z,25.80
2018-05-10T10:19:08.386Z,25.80
2018-05-10T10:21:36.285Z,25.80
2018-05-10T10:24:03.994Z,25.90
2018-05-10T10:26:31.595Z,26.10
2018-05-10T10:28:59.145Z,26.10
2018-05-10T10:31:26.977Z,26.10
2018-05-10T10:33:56.035Z,26.10
2018-05-10T10:36:24.781Z,26.10
2018-05-10T10:38:52.304Z,26.20
2018-05-10T10:41:21.455Z,26.30
2018-05-10T10:43:49.882Z,26.30
2018-05-10T10:46:18.229Z,26.50
2018-05-10T10:48:45.830Z,26.50
2018-05-10T10:51:13.454Z,26.70
2018-05-10T10:53:40.984Z,26.80
2018-05-10T10:56:08.757Z,26.90
2018-05-10T10:58:36.301Z,27.00
2018-05-10T11:01:03.910Z,27.20
2018-05-10T11:03:31.947Z,27.40
2018-05-10T11:05:59.576Z,27.70
2018-05-10T11:08:27.433Z,27.80
2018-05-10T11:10:56.261Z,27.60
2018-05-10T11:13:23.933Z,27.50
2018-05-10T11:15:51.468Z,27.50
2018-05-10T11:18:19.045Z,27.60
2018-05-10T11:20:46.893Z,27.80
2018-05-10T11:23:14.426Z,28.10
2018-05-10T11:25:42.799Z,28.50
2018-05-10T11:28:11.928Z,28.50
2018-05-10T11:30:39.629Z,28.60
2018-05-10T11:33:08.681Z,28.70
2018-05-10T11:35:36.248Z,28.90
2018-05-10T11:38:03.832Z,29.10
2018-05-10T11:40:31.483Z,29.30
2018-05-10T11:43:00.160Z,29.30
2018-05-10T11:45:27.725Z,29.60
2018-05-10T11:47:55.589Z,29.60
2018-05-10T11:50:23.161Z,29.50
2018-05-10T11:52:50.722Z,29.60
2018-05-10T11:55:18.764Z,29.50
2018-05-10T11:57:47.124Z,29.30
2018-05-10T12:00:14.757Z,29.40
2018-05-10T12:02:42.353Z,29.50
2018-05-10T12:05:10.599Z,29.50
2018-05-10T12:07:38.140Z,29.00
2018-05-10T12:10:07.341Z,28.70
2018-05-10T12:12:35.715Z,28.60
2018-05-10T12:15:04.030Z,28.60
2018-05-10T12:17:32.382Z,28.50
2018-05-10T12:20:00.949Z,28.30
2018-05-10T12:22:28.530Z,27.90
2018-05-10T12:24:56.542Z,27.80
2018-05-10T12:27:25.016Z,27.60
2018-05-10T12:29:53.298Z,27.90
2018-05-10T12:32:21.606Z,28.20
2018-05-10T12:34:49.169Z,28.20
2018-05-10T12:37:17.763Z,28.50
2018-05-10T12:39:46.423Z,28.80
2018-05-10T12:42:14.436Z,29.00
2018-05-10T12:44:42.015Z,29.20
2018-05-10T12:47:09.897Z,29.20
2018-05-10T12:49:37.526Z,29.50
2018-05-10T12:52:05.264Z,29.50
2018-05-10T12:54:32.886Z,29.10
2018-05-10T12:57:00.874Z,29.00
2018-05-10T12:59:28.869Z,29.10
2018-05-10T13:01:56.473Z,29.40
2018-05-10T13:04:25.204Z,29.40
2018-05-10T13:06:54.206Z,29.30
2018-05-10T13:09:21.623Z,29.50
2018-05-10T13:11:49.943Z,29.70
2018-05-10T13:14:18.227Z,29.70
2018-05-10T13:16:47.949Z,29.60
2018-05-10T13:19:15.624Z,29.50
2018-05-10T13:21:43.205Z,29.50
2018-05-10T13:24:12.251Z,29.10
2018-05-10T13:26:40.401Z,29.00
2018-05-10T13:29:08.190Z,28.90
2018-05-10T13:31:35.827Z,28.70
2018-05-10T13:34:03.656Z,28.60
2018-05-10T13:36:31.917Z,28.40
2018-05-10T13:38:59.646Z,28.30
2018-05-10T13:41:31.240Z,28.30
2018-05-10T13:43:58.880Z,28.00
2018-05-10T13:46:27.234Z,27.90
2018-05-10T13:48:55.455Z,28.00
2018-05-10T13:51:23.698Z,27.80
2018-05-10T13:53:51.437Z,27.70
2018-05-10T13:56:19.722Z,27.30
2018-05-10T13:58:47.363Z,27.30
2018-05-10T14:01:15.150Z,27.40
2018-05-10T14:03:42.691Z,27.50
2018-05-10T14:06:11.060Z,27.30
2018-05-10T14:08:38.629Z,27.30
2018-05-10T14:11:06.566Z,27.30
2018-05-10T14:13:34.198Z,27.30
2018-05-10T14:16:02.221Z,27.40
2018-05-10T14:18:30.834Z,27.50
2018-05-10T14:20:58.366Z,27.60
2018-05-10T14:23:25.888Z,27.60
2018-05-10T14:25:53.452Z,27.60
2018-05-10T14:28:21.105Z,27.60
2018-05-10T14:30:48.691Z,27.60
2018-05-10T14:33:16.377Z,27.60
2018-05-10T14:35:44.046Z,27.60
2018-05-10T14:38:11.782Z,27.60
2018-05-10T14:40:39.376Z,27.50
2018-05-10T14:43:06.900Z,27.50
2018-05-10T14:45:34.537Z,27.40
2018-05-10T14:48:02.938Z,27.30
2018-05-10T14:50:30.516Z,27.30
2018-05-10T14:52:59.011Z,27.30
2018-05-10T14:55:26.893Z,27.30
2018-05-10T14:57:54.514Z,27.30
2018-05-10T15:00:22.253Z,27.40
2018-05-10T15:02:49.824Z,27.50
2018-05-10T15:05:18.765Z,27.60
2018-05-10T15:07:48.301Z,27.60
2018-05-10T15:10:16.469Z,27.60
2018-05-10T15:12:44.808Z,27.50
2018-05-10T15:15:12.519Z,27.40
2018-05-10T15:17:40.050Z,27.30
2018-05-10T15:20:07.656Z,27.30
2018-05-10T15:22:35.324Z,27.40
2018-05-10T15:25:03.145Z,27.70
2018-05-10T15:27:30.697Z,27.90
2018-05-10T15:29:58.270Z,28.10
2018-05-10T15:32:26.082Z,28.40
2018-05-10T15:34:53.627Z,28.60
2018-05-10T15:37:21.162Z,29.00
2018-05-10T15:39:49.423Z,29.20
2018-05-10T15:42:16.990Z,29.30
2018-05-10T15:44:44.536Z,29.20
2018-05-10T15:47:12.908Z,28.80
2018-05-10T15:49:40.770Z,28.80
2018-05-10T15:52:08.310Z,28.60
2018-05-10T15:54:37.210Z,27.50
2018-05-10T15:57:04.749Z,27.50
2018-05-10T15:59:33.136Z,27.10
2018-05-10T16:02:00.810Z,26.70
2018-05-10T16:04:28.582Z,26.40
2018-05-10T16:06:56.129Z,26.10
2018-05-10T16:09:23.755Z,26.00
2018-05-10T16:11:52.123Z,26.00
2018-05-10T16:14:20.428Z,25.90
2018-05-10T16:16:48.797Z,25.90
2018-05-10T16:19:16.332Z,25.90
2018-05-10T16:21:45.568Z,25.90
2018-05-10T16:24:13.142Z,25.80
2018-05-10T16:26:40.703Z,25.90
2018-05-10T16:29:08.932Z,25.80
2018-05-10T16:31:37.254Z,25.80
2018-05-10T16:34:05.650Z,25.80
2018-05-10T16:36:33.191Z,25.70
2018-05-10T16:39:00.983Z,25.60
2018-05-10T16:41:28.606Z,25.50
2018-05-10T16:43:56.179Z,25.40
2018-05-10T16:46:23.848Z,25.40
2018-05-10T16:48:52.145Z,25.30
2018-05-10T16:51:19.709Z,25.30
2018-05-10T16:53:48.758Z,25.40
2018-05-10T16:56:16.518Z,25.30
2018-05-10T16:58:44.094Z,25.40
2018-05-10T17:01:11.725Z,25.40
2018-05-10T17:03:39.252Z,25.50
2018-05-10T17:06:07.671Z,25.80
2018-05-10T17:08:36.253Z,25.70
2018-05-10T17:11:03.809Z,25.80
2018-05-10T17:13:31.364Z,25.80
2018-05-10T17:15:59.709Z,25.70
2018-05-10T17:18:27.319Z,25.70
2018-05-10T17:20:54.844Z,25.60
2018-05-10T17:23:22.438Z,25.50
2018-05-10T17:25:50.015Z,25.30
2018-05-10T17:28:17.575Z,25.10
2018-05-10T17:30:45.913Z,25.00
2018-05-10T17:33:14.123Z,24.90
2018-05-10T17:35:42.163Z,24.80
2018-05-10T17:38:11.049Z,24.80
2018-05-10T17:40:39.493Z,24.60
2018-05-10T17:43:07.060Z,24.60
2018-05-10T17:45:34.683Z,24.40
2018-05-10T17:48:02.898Z,24.30
2018-05-10T17:50:30.437Z,24.20
2018-05-10T17:52:58.183Z,24.10
2018-05-10T17:55:25.751Z,23.80
2018-05-10T17:57:54.216Z,23.60
2018-05-10T18:00:21.813Z,23.50
2018-05-10T18:02:49.385Z,23.50
2018-05-10T18:05:17.773Z,23.40
2018-05-10T18:07:45.328Z,23.40
2018-05-10T18:10:12.897Z,23.40
2018-05-10T18:12:41.229Z,23.40
2018-05-10T18:15:09.270Z,23.40
2018-05-10T18:17:37.973Z,23.20
2018-05-10T18:20:05.520Z,23.20
2018-05-10T18:22:33.077Z,23.00
2018-05-10T18:25:01.418Z,22.80
2018-05-10T18:27:29.359Z,22.70
2018-05-10T18:29:57.632Z,22.60
2018-05-10T18:32:25.384Z,22.50
2018-05-10T18:34:53.874Z,22.40
2018-05-10T18:37:21.416Z,22.30
2018-05-10T18:39:48.966Z,22.10
2018-05-10T18:42:17.728Z,21.90
2018-05-10T18:44:45.416Z,21.90
2018-05-10T18:47:13.178Z,21.80
2018-05-10T18:49:41.510Z,21.60
2018-05-10T18:52:09.258Z,21.60
2018-05-10T18:54:37.040Z,21.60
2018-05-10T18:57:04.836Z,21.50
2018-05-10T18:59:32.470Z,21.40
2018-05-10T19:02:00.129Z,21.40
2018-05-10T19:04:27.698Z,21.30
2018-05-10T19:06:55.272Z,21.20
2018-05-10T19:09:22.937Z,21.20
2018-05-10T19:11:50.906Z,21.20
2018-05-10T19:14:18.568Z,21.10
2018-05-10T19:16:46.293Z,21.10
2018-05-10T19:19:13.986Z,21.00
2018-05-10T19:21:42.301Z,21.00
2018-05-10T19:24:09.905Z,21.00
2018-05-10T19:26:37.575Z,20.90
2018-05-10T19:29:05.254Z,20.90
2018-05-10T19:31:33.087Z,20.80
2018-05-10T19:34:00.824Z,20.80
2018-05-10T19:36:29.652Z,20.80
2018-05-10T19:38:57.364Z,20.70
2018-05-10T19:41:25.034Z,20.70
2018-05-10T19:43:52.588Z,20.60
2018-05-10T19:46:20.150Z,20.60
2018-05-10T19:48:48.185Z,20.60
2018-05-10T19:51:15.797Z,20.60
2018-05-10T19:53:43.365Z,20.50
2018-05-10T19:56:11.219Z,20.50
2018-05-10T19:58:39.002Z,20.40
2018-05-10T20:01:06.773Z,20.40
2018-05-10T20:03:34.344Z,20.30
2018-05-10T20:06:02.823Z,20.30
2018-05-10T20:08:31.055Z,20.30
2018-05-10T20:11:00.024Z,20.30
2018-05-10T20:13:27.852Z,20.30
2018-05-10T20:15:55.394Z,20.30
2018-05-10T20:18:23.129Z,20.20
2018-05-10T20:20:52.439Z,20.20
2018-05-10T20:23:20.520Z,20.20
2018-05-10T20:25:48.203Z,20.10
2018-05-10T20:28:16.207Z,20.00
2018-05-10T20:30:44.022Z,19.90
2018-05-10T20:33:12.216Z,20.00
2018-05-10T20:35:39.835Z,20.00
2018-05-10T20:38:08.832Z,20.10
2018-05-10T20:40:39.271Z,20.10
2018-05-10T20:43:11.125Z,20.10
2018-05-10T20:45:38.739Z,20.10
2018-05-10T20:48:06.531Z,20.20
2018-05-10T20:50:34.247Z,20.10
2018-05-10T20:53:03.084Z,20.10
2018-05-10T20:55:30.843Z,20.10
2018-05-10T20:57:59.334Z,20.10
2018-05-10T21:00:26.941Z,20.10
2018-05-10T21:02:54.525Z,20.00
2018-05-10T21:05:22.242Z,19.90
2018-05-10T21:07:51.072Z,19.80
2018-05-10T21:10:19.568Z,19.80
2018-05-10T21:12:47.147Z,19.80
2018-05-10T21:15:14.895Z,19.80
2018-05-10T21:17:42.718Z,19.80
2018-05-10T21:20:16.917Z,19.80
2018-05-10T21:22:44.862Z,19.80
2018-05-10T21:25:16.099Z,19.80
2018-05-10T21:27:46.239Z,19.80
2018-05-10T21:30:13.886Z,19.90
2018-05-10T21:32:42.296Z,19.90
2018-05-10T21:35:10.608Z,19.80
2018-05-10T21:37:38.180Z,19.80
2018-05-10T21:40:05.840Z,19.80
2018-05-10T21:42:33.462Z,19.80
2018-05-10T21:45:01.018Z,19.80
2018-05-10T21:47:29.396Z,19.80
2018-05-10T21:50:06.546Z,19.70
2018-05-10T21:52:34.128Z,19.80
2018-05-10T21:55:02.070Z,19.80
2018-05-10T21:57:29.723Z,19.80
2018-05-10T21:59:58.531Z,19.80
2018-05-10T22:02:26.380Z,19.80
2018-05-10T22:04:53.964Z,19.90
2018-05-10T22:07:22.152Z,19.80
2018-05-10T22:09:50.465Z,19.80
2018-05-10T22:12:20.448Z,19.90
2018-05-10T22:14:47.983Z,19.80
2018-05-10T22:17:16.479Z,19.80
2018-05-10T22:19:44.397Z,19.80
2018-05-10T22:22:12.247Z,19.80
2018-05-10T22:24:39.871Z,19.70
2018-05-10T22:27:07.482Z,19.60
2018-05-10T22:29:35.267Z,19.50
2018-05-10T22:32:02.816Z,19.50
2018-05-10T22:34:31.187Z,19.50
2018-05-10T22:36:58.707Z,19.30
2018-05-10T22:39:26.517Z,19.40
2018-05-10T22:41:54.062Z,19.40
2018-05-10T22:44:22.848Z,19.40
2018-05-10T22:46:50.373Z,19.30
2018-05-10T22:49:17.914Z,19.20
2018-05-10T22:51:45.527Z,19.10
2018-05-10T22:54:13.046Z,19.10
2018-05-10T22:56:40.564Z,19.10
2018-05-10T22:59:08.733Z,19.20
2018-05-10T23:01:36.316Z,19.20
2018-05-10T23:04:03.874Z,19.20
2018-05-10T23:06:31.413Z,19.10
2018-05-10T23:08:58.967Z,19.10
2018-05-10T23:11:27.281Z,18.90
2018-05-10T23:13:55.113Z,19.00
2018-05-10T23:16:22.825Z,18.90
2018-05-10T23:18:50.511Z,18.90
2018-05-10T23:21:18.048Z,18.80
2018-05-10T23:23:46.942Z,18.80
2018-05-10T23:26:14.487Z,18.80
2018-05-10T23:28:42.116Z,18.80
2018-05-10T23:31:09.667Z,18.80
2018-05-10T23:33:37.666Z,18.70
2018-05-10T23:36:05.194Z,18.70
2018-05-10T23:38:32.751Z,18.70
2018-05-10T23:41:01.051Z,18.70
2018-05-10T23:43:28.592Z,18.60
2018-05-10T23:45:56.208Z,18.60
2018-05-10T23:48:23.766Z,18.60
2018-05-10T23:50:51.309Z,18.60
2018-05-10T23:53:18.868Z,18.60
2018-05-10T23:55:46.444Z,18.50
2018-05-10T23:58:14.118Z,18.50
